sensor_id;sensor_type;location;lat;lon;timestamp;pressure;altitude;pressure_sealevel;temperature;humidity
53011;BME280;42803;55.762;38.084;2023-05-02T00:01:17;100031.66;;;1.62;100.00
53011;BME280;42803;55.762;38.084;2023-05-02T00:03:46;100027.78;;;1.66;100.00
53011;BME280;42803;55.762;38.084;2023-05-02T00:06:15;100030.38;;;1.66;100.00
53011;BME280;42803;55.762;38.084;2023-05-02T00:08:44;100032.03;;;1.65;100.00
53011;BME280;42803;55.762;38.084;2023-05-02T00:11:13;100036.06;;;1.56;100.00
53011;BME280;42803;55.762;38.084;2023-05-02T00:13:44;100043.06;;;1.50;100.00
53011;BME280;42803;55.762;38.084;2023-05-02T00:16:13;100045.41;;;1.49;100.00
53011;BME280;42803;55.762;38.084;2023-05-02T00:18:42;100052.06;;;1.46;100.00
53011;BME280;42803;55.762;38.084;2023-05-02T00:21:11;100066.94;;;1.42;100.00
53011;BME280;42803;55.762;38.084;2023-05-02T00:23:40;100053.69;;;1.39;100.00
53011;BME280;42803;55.762;38.084;2023-05-02T00:26:09;100066.34;;;1.37;100.00
53011;BME280;42803;55.762;38.084;2023-05-02T00:28:43;100073.50;;;1.33;100.00
53011;BME280;42803;55.762;38.084;2023-05-02T00:31:12;100070.56;;;1.30;100.00
53011;BME280;42803;55.762;38.084;2023-05-02T00:33:42;100071.88;;;1.26;100.00
53011;BME280;42803;55.762;38.084;2023-05-02T00:36:14;100072.41;;;1.24;100.00
53011;BME280;42803;55.762;38.084;2023-05-02T00:38:44;100068.38;;;1.18;100.00
53011;BME280;42803;55.762;38.084;2023-05-02T00:41:15;100078.44;;;1.17;100.00
53011;BME280;42803;55.762;38.084;2023-05-02T00:43:46;100080.09;;;1.16;100.00
53011;BME280;42803;55.762;38.084;2023-05-02T00:46:15;100086.34;;;1.11;100.00
53011;BME280;42803;55.762;38.084;2023-05-02T00:48:44;100092.19;;;1.10;100.00
53011;BME280;42803;55.762;38.084;2023-05-02T00:51:13;100088.16;;;1.05;100.00
53011;BME280;42803;55.762;38.084;2023-05-02T00:53:43;100087.38;;;0.99;100.00
53011;BME280;42803;55.762;38.084;2023-05-02T00:56:12;100096.94;;;1.00;100.00
53011;BME280;42803;55.762;38.084;2023-05-02T00:58:43;100092.53;;;0.99;100.00
53011;BME280;42803;55.762;38.084;2023-05-02T01:01:28;100101.53;;;0.95;100.00
53011;BME280;42803;55.762;38.084;2023-05-02T01:04:12;100108.66;;;0.91;100.00
53011;BME280;42803;55.762;38.084;2023-05-02T01:06:55;100106.03;;;0.84;100.00
53011;BME280;42803;55.762;38.084;2023-05-02T01:09:34;100115.63;;;0.85;100.00
53011;BME280;42803;55.762;38.084;2023-05-02T01:12:13;100120.38;;;0.82;100.00
53011;BME280;42803;55.762;38.084;2023-05-02T01:14:47;100116.50;;;0.78;100.00
53011;BME280;42803;55.762;38.084;2023-05-02T01:17:23;100125.84;;;0.78;100.00
53011;BME280;42803;55.762;38.084;2023-05-02T01:19:57;100131.13;;;0.72;100.00
53011;BME280;42803;55.762;38.084;2023-05-02T01:22:28;100137.88;;;0.64;100.00
53011;BME280;42803;55.762;38.084;2023-05-02T01:25:04;100136.22;;;0.58;100.00
53011;BME280;42803;55.762;38.084;2023-05-02T01:27:46;100138.75;;;0.51;100.00
53011;BME280;42803;55.762;38.084;2023-05-02T01:30:19;100148.81;;;0.49;100.00
53011;BME280;42803;55.762;38.084;2023-05-02T01:32:51;100145.53;;;0.50;100.00
53011;BME280;42803;55.762;38.084;2023-05-02T01:35:22;100154.69;;;0.48;100.00
53011;BME280;42803;55.762;38.084;2023-05-02T01:37:54;100148.09;;;0.50;100.00
53011;BME280;42803;55.762;38.084;2023-05-02T01:40:25;100157.63;;;0.51;100.00
53011;BME280;42803;55.762;38.084;2023-05-02T01:42:56;100159.69;;;0.54;100.00
53011;BME280;42803;55.762;38.084;2023-05-02T01:45:28;100160.97;;;0.57;100.00
53011;BME280;42803;55.762;38.084;2023-05-02T01:47:57;100165.13;;;0.77;100.00
53011;BME280;42803;55.762;38.084;2023-05-02T01:50:30;100165.66;;;1.08;100.00
53011;BME280;42803;55.762;38.084;2023-05-02T01:52:59;100167.59;;;1.38;100.00
53011;BME280;42803;55.762;38.084;2023-05-02T01:55:33;100169.50;;;1.67;100.00
53011;BME280;42803;55.762;38.084;2023-05-02T01:58:04;100173.41;;;2.07;100.00
53011;BME280;42803;55.762;38.084;2023-05-02T02:00:35;100174.69;;;2.39;100.00
53011;BME280;42803;55.762;38.084;2023-05-02T02:03:06;100172.47;;;2.63;100.00
53011;BME280;42803;55.762;38.084;2023-05-02T02:05:38;100165.03;;;2.88;100.00
53011;BME280;42803;55.762;38.084;2023-05-02T02:08:09;100177.44;;;3.21;100.00
53011;BME280;42803;55.762;38.084;2023-05-02T02:10:40;100166.41;;;3.52;100.00
53011;BME280;42803;55.762;38.084;2023-05-02T02:13:16;100174.88;;;3.81;100.00
53011;BME280;42803;55.762;38.084;2023-05-02T02:15:49;100177.75;;;3.98;100.00
53011;BME280;42803;55.762;38.084;2023-05-02T02:18:22;100172.38;;;3.97;100.00
53011;BME280;42803;55.762;38.084;2023-05-02T02:20:53;100177.25;;;4.17;100.00
53011;BME280;42803;55.762;38.084;2023-05-02T02:23:26;100183.81;;;4.45;100.00
53011;BME280;42803;55.762;38.084;2023-05-02T02:25:57;100190.72;;;4.76;100.00
53011;BME280;42803;55.762;38.084;2023-05-02T02:28:27;100187.41;;;4.93;100.00
53011;BME280;42803;55.762;38.084;2023-05-02T02:30:57;100191.56;;;4.99;100.00
53011;BME280;42803;55.762;38.084;2023-05-02T02:33:29;100197.28;;;5.04;100.00
53011;BME280;42803;55.762;38.084;2023-05-02T02:36:07;100196.66;;;5.22;100.00
53011;BME280;42803;55.762;38.084;2023-05-02T02:38:44;100199.47;;;5.64;100.00
53011;BME280;42803;55.762;38.084;2023-05-02T02:41:17;100188.38;;;6.05;100.00
53011;BME280;42803;55.762;38.084;2023-05-02T02:43:57;100194.06;;;6.85;97.73
53011;BME280;42803;55.762;38.084;2023-05-02T02:46:45;100201.13;;;7.03;93.09
53011;BME280;42803;55.762;38.084;2023-05-02T02:49:24;100206.63;;;5.82;93.91
53011;BME280;42803;55.762;38.084;2023-05-02T02:52:02;100218.81;;;4.73;97.59
53011;BME280;42803;55.762;38.084;2023-05-02T02:54:38;100215.31;;;4.03;100.00
53011;BME280;42803;55.762;38.084;2023-05-02T02:57:15;100232.50;;;3.73;100.00
53011;BME280;42803;55.762;38.084;2023-05-02T02:59:50;100233.66;;;3.60;100.00
53011;BME280;42803;55.762;38.084;2023-05-02T03:02:28;100242.53;;;3.55;100.00
53011;BME280;42803;55.762;38.084;2023-05-02T03:05:00;100237.38;;;3.55;100.00
53011;BME280;42803;55.762;38.084;2023-05-02T03:07:30;100245.13;;;3.55;100.00
53011;BME280;42803;55.762;38.084;2023-05-02T03:10:02;100243.75;;;3.66;100.00
53011;BME280;42803;55.762;38.084;2023-05-02T03:12:34;100247.19;;;3.81;100.00
53011;BME280;42803;55.762;38.084;2023-05-02T03:15:13;100253.41;;;3.97;100.00
53011;BME280;42803;55.762;38.084;2023-05-02T03:17:48;100250.88;;;4.13;100.00
53011;BME280;42803;55.762;38.084;2023-05-02T03:20:17;100254.09;;;4.26;100.00
53011;BME280;42803;55.762;38.084;2023-05-02T03:22:47;100254.00;;;4.40;100.00
53011;BME280;42803;55.762;38.084;2023-05-02T03:25:16;100256.44;;;4.62;100.00
53011;BME280;42803;55.762;38.084;2023-05-02T03:27:48;100255.13;;;4.66;100.00
53011;BME280;42803;55.762;38.084;2023-05-02T03:30:18;100262.53;;;4.62;99.37
53011;BME280;42803;55.762;38.084;2023-05-02T03:32:49;100270.28;;;4.62;100.00
53011;BME280;42803;55.762;38.084;2023-05-02T03:35:18;100260.59;;;4.69;100.00
53011;BME280;42803;55.762;38.084;2023-05-02T03:37:50;100272.50;;;4.82;100.00
53011;BME280;42803;55.762;38.084;2023-05-02T03:40:19;100262.13;;;5.05;100.00
53011;BME280;42803;55.762;38.084;2023-05-02T03:42:49;100267.75;;;4.94;100.00
53011;BME280;42803;55.762;38.084;2023-05-02T03:45:24;100273.78;;;5.02;100.00
53011;BME280;42803;55.762;38.084;2023-05-02T03:47:55;100276.47;;;5.10;100.00
53011;BME280;42803;55.762;38.084;2023-05-02T03:50:24;100284.72;;;5.15;100.00
53011;BME280;42803;55.762;38.084;2023-05-02T03:52:55;100272.31;;;5.20;95.96
53011;BME280;42803;55.762;38.084;2023-05-02T03:55:38;100281.34;;;5.39;96.21
53011;BME280;42803;55.762;38.084;2023-05-02T03:58:09;100283.25;;;5.49;97.78
53011;BME280;42803;55.762;38.084;2023-05-02T04:00:56;100286.09;;;5.27;98.07
53011;BME280;42803;55.762;38.084;2023-05-02T04:06:18;100293.31;;;5.07;100.00
53011;BME280;42803;55.762;38.084;2023-05-02T04:08:53;100298.78;;;5.17;100.00
53011;BME280;42803;55.762;38.084;2023-05-02T04:11:22;100301.53;;;5.19;100.00
53011;BME280;42803;55.762;38.084;2023-05-02T04:13:54;100302.06;;;5.23;100.00
53011;BME280;42803;55.762;38.084;2023-05-02T04:19:12;100310.81;;;5.32;100.00
53011;BME280;42803;55.762;38.084;2023-05-02T04:21:41;100307.75;;;5.44;100.00
53011;BME280;42803;55.762;38.084;2023-05-02T04:24:12;100304.66;;;5.55;100.00
53011;BME280;42803;55.762;38.084;2023-05-02T04:26:42;100311.84;;;5.57;99.11
53011;BME280;42803;55.762;38.084;2023-05-02T04:29:12;100316.13;;;5.73;99.58
53011;BME280;42803;55.762;38.084;2023-05-02T04:31:42;100318.94;;;5.83;100.00
53011;BME280;42803;55.762;38.084;2023-05-02T04:34:31;100319.56;;;5.96;98.91
53011;BME280;42803;55.762;38.084;2023-05-02T04:37:00;100327.66;;;5.99;98.56
53011;BME280;42803;55.762;38.084;2023-05-02T04:39:31;100328.97;;;6.12;98.01
53011;BME280;42803;55.762;38.084;2023-05-02T04:42:08;100330.28;;;6.24;95.33
53011;BME280;42803;55.762;38.084;2023-05-02T04:44:47;100326.06;;;6.33;96.13
53011;BME280;42803;55.762;38.084;2023-05-02T04:47:16;100335.19;;;6.45;92.53
53011;BME280;42803;55.762;38.084;2023-05-02T04:49:47;100336.13;;;6.54;92.32
53011;BME280;42803;55.762;38.084;2023-05-02T04:52:16;100330.47;;;6.50;94.62
53011;BME280;42803;55.762;38.084;2023-05-02T04:54:45;100341.31;;;6.54;94.25
53011;BME280;42803;55.762;38.084;2023-05-02T04:57:15;100333.25;;;6.60;89.99
53011;BME280;42803;55.762;38.084;2023-05-02T04:59:49;100334.41;;;6.71;84.24
53011;BME280;42803;55.762;38.084;2023-05-02T05:02:18;100329.53;;;6.74;90.82
53011;BME280;42803;55.762;38.084;2023-05-02T05:04:49;100336.56;;;6.75;91.12
53011;BME280;42803;55.762;38.084;2023-05-02T05:07:19;100331.00;;;6.88;89.61
53011;BME280;42803;55.762;38.084;2023-05-02T05:12:46;100338.38;;;7.00;91.68
53011;BME280;42803;55.762;38.084;2023-05-02T05:15:16;100332.41;;;7.01;91.09
53011;BME280;42803;55.762;38.084;2023-05-02T05:17:52;100333.72;;;7.14;86.81
53011;BME280;42803;55.762;38.084;2023-05-02T05:20:22;100337.44;;;7.33;89.54
53011;BME280;42803;55.762;38.084;2023-05-02T05:22:55;100333.94;;;7.41;89.96
53011;BME280;42803;55.762;38.084;2023-05-02T05:25:25;100331.66;;;7.44;88.87
53011;BME280;42803;55.762;38.084;2023-05-02T05:27:55;100332.25;;;7.42;87.62
53011;BME280;42803;55.762;38.084;2023-05-02T05:30:25;100329.69;;;7.50;87.95
53011;BME280;42803;55.762;38.084;2023-05-02T05:32:55;100338.44;;;7.60;86.44
53011;BME280;42803;55.762;38.084;2023-05-02T05:35:26;100335.22;;;7.62;85.30
53011;BME280;42803;55.762;38.084;2023-05-02T05:37:58;100320.56;;;7.71;83.04
53011;BME280;42803;55.762;38.084;2023-05-02T05:40:29;100328.06;;;7.77;84.20
53011;BME280;42803;55.762;38.084;2023-05-02T05:42:59;100327.78;;;7.91;82.28
53011;BME280;42803;55.762;38.084;2023-05-02T05:45:33;100330.84;;;8.13;82.38
53011;BME280;42803;55.762;38.084;2023-05-02T05:48:04;100333.13;;;8.19;83.50
53011;BME280;42803;55.762;38.084;2023-05-02T05:50:42;100328.66;;;8.35;80.56
53011;BME280;42803;55.762;38.084;2023-05-02T05:53:11;100322.13;;;8.47;81.78
53011;BME280;42803;55.762;38.084;2023-05-02T05:55:42;100327.91;;;8.53;80.43
53011;BME280;42803;55.762;38.084;2023-05-02T05:58:12;100326.22;;;8.54;80.88
53011;BME280;42803;55.762;38.084;2023-05-02T06:00:44;100334.03;;;8.63;78.04
53011;BME280;42803;55.762;38.084;2023-05-02T06:03:13;100338.28;;;8.71;78.49
53011;BME280;42803;55.762;38.084;2023-05-02T06:05:43;100336.56;;;8.80;76.22
53011;BME280;42803;55.762;38.084;2023-05-02T06:08:12;100343.44;;;8.88;74.87
53011;BME280;42803;55.762;38.084;2023-05-02T06:10:41;100340.00;;;9.07;71.18
53011;BME280;42803;55.762;38.084;2023-05-02T06:13:10;100338.31;;;9.16;68.14
53011;BME280;42803;55.762;38.084;2023-05-02T06:15:42;100345.16;;;9.24;70.81
53011;BME280;42803;55.762;38.084;2023-05-02T06:18:12;100340.31;;;9.10;73.76
53011;BME280;42803;55.762;38.084;2023-05-02T06:20:44;100343.66;;;9.17;66.22
53011;BME280;42803;55.762;38.084;2023-05-02T06:23:14;100336.56;;;9.25;71.27
53011;BME280;42803;55.762;38.084;2023-05-02T06:25:43;100347.00;;;9.25;70.08
53011;BME280;42803;55.762;38.084;2023-05-02T06:28:12;100345.34;;;9.17;72.05
53011;BME280;42803;55.762;38.084;2023-05-02T06:30:41;100345.28;;;9.25;68.47
53011;BME280;42803;55.762;38.084;2023-05-02T06:33:10;100350.94;;;9.30;70.77
53011;BME280;42803;55.762;38.084;2023-05-02T06:35:40;100343.66;;;9.45;70.46
53011;BME280;42803;55.762;38.084;2023-05-02T06:38:10;100342.94;;;9.37;63.75
53011;BME280;42803;55.762;38.084;2023-05-02T06:40:39;100337.25;;;9.41;62.70
53011;BME280;42803;55.762;38.084;2023-05-02T06:43:30;100345.28;;;9.62;64.62
53011;BME280;42803;55.762;38.084;2023-05-02T06:46:01;100339.03;;;9.79;63.59
53011;BME280;42803;55.762;38.084;2023-05-02T06:48:30;100339.44;;;9.83;62.90
53011;BME280;42803;55.762;38.084;2023-05-02T06:50:59;100347.56;;;9.86;64.68
53011;BME280;42803;55.762;38.084;2023-05-02T06:53:32;100346.25;;;9.72;60.94
53011;BME280;42803;55.762;38.084;2023-05-02T06:56:01;100347.28;;;9.83;65.94
53011;BME280;42803;55.762;38.084;2023-05-02T06:58:32;100351.94;;;9.77;65.00
53011;BME280;42803;55.762;38.084;2023-05-02T07:01:01;100349.38;;;9.87;67.21
53011;BME280;42803;55.762;38.084;2023-05-02T07:03:32;100342.78;;;10.10;67.13
53011;BME280;42803;55.762;38.084;2023-05-02T07:06:01;100339.41;;;10.30;67.10
53011;BME280;42803;55.762;38.084;2023-05-02T07:08:32;100353.72;;;10.24;65.06
53011;BME280;42803;55.762;38.084;2023-05-02T07:11:02;100338.75;;;10.13;63.51
53011;BME280;42803;55.762;38.084;2023-05-02T07:13:34;100343.50;;;10.17;65.13
53011;BME280;42803;55.762;38.084;2023-05-02T07:16:05;100353.22;;;10.10;65.00
53011;BME280;42803;55.762;38.084;2023-05-02T07:18:38;100345.09;;;10.07;65.27
53011;BME280;42803;55.762;38.084;2023-05-02T07:21:07;100343.34;;;10.16;63.44
53011;BME280;42803;55.762;38.084;2023-05-02T07:23:37;100339.72;;;10.33;59.41
53011;BME280;42803;55.762;38.084;2023-05-02T07:26:06;100340.97;;;10.46;62.59
53011;BME280;42803;55.762;38.084;2023-05-02T07:28:35;100342.09;;;10.40;65.85
53011;BME280;42803;55.762;38.084;2023-05-02T07:31:05;100342.06;;;10.59;65.72
53011;BME280;42803;55.762;38.084;2023-05-02T07:33:34;100346.00;;;10.64;65.26
53011;BME280;42803;55.762;38.084;2023-05-02T07:36:03;100332.25;;;10.56;62.32
53011;BME280;42803;55.762;38.084;2023-05-02T07:38:32;100329.59;;;10.75;63.20
53011;BME280;42803;55.762;38.084;2023-05-02T07:41:03;100335.00;;;10.87;56.15
53011;BME280;42803;55.762;38.084;2023-05-02T07:43:32;100339.09;;;10.64;60.23
53011;BME280;42803;55.762;38.084;2023-05-02T07:46:05;100346.72;;;10.53;60.24
53011;BME280;42803;55.762;38.084;2023-05-02T07:48:34;100342.00;;;10.48;57.54
53011;BME280;42803;55.762;38.084;2023-05-02T07:51:07;100343.88;;;10.49;58.18
53011;BME280;42803;55.762;38.084;2023-05-02T07:53:36;100334.56;;;10.72;58.80
53011;BME280;42803;55.762;38.084;2023-05-02T07:56:07;100337.22;;;10.82;60.16
53011;BME280;42803;55.762;38.084;2023-05-02T07:58:37;100337.66;;;10.97;58.87
53011;BME280;42803;55.762;38.084;2023-05-02T08:01:06;100333.84;;;11.22;55.86
53011;BME280;42803;55.762;38.084;2023-05-02T08:03:36;100333.06;;;11.44;56.56
53011;BME280;42803;55.762;38.084;2023-05-02T08:06:05;100335.69;;;11.44;54.84
53011;BME280;42803;55.762;38.084;2023-05-02T08:08:36;100336.50;;;11.53;53.73
53011;BME280;42803;55.762;38.084;2023-05-02T08:11:06;100330.88;;;11.49;54.65
53011;BME280;42803;55.762;38.084;2023-05-02T08:13:35;100335.97;;;11.57;56.37
53011;BME280;42803;55.762;38.084;2023-05-02T08:16:05;100331.94;;;11.61;56.09
53011;BME280;42803;55.762;38.084;2023-05-02T08:18:35;100320.16;;;11.45;54.83
53011;BME280;42803;55.762;38.084;2023-05-02T08:21:04;100339.25;;;11.65;53.94
53011;BME280;42803;55.762;38.084;2023-05-02T08:23:33;100336.31;;;11.31;52.82
53011;BME280;42803;55.762;38.084;2023-05-02T08:26:04;100338.69;;;11.38;57.93
53011;BME280;42803;55.762;38.084;2023-05-02T08:28:37;100336.38;;;11.72;57.81
53011;BME280;42803;55.762;38.084;2023-05-02T08:31:06;100327.88;;;12.05;54.06
53011;BME280;42803;55.762;38.084;2023-05-02T08:33:35;100335.63;;;11.83;57.49
53011;BME280;42803;55.762;38.084;2023-05-02T08:36:10;100326.81;;;11.62;56.51
53011;BME280;42803;55.762;38.084;2023-05-02T08:38:39;100336.34;;;11.52;54.80
53011;BME280;42803;55.762;38.084;2023-05-02T08:41:09;100336.88;;;11.47;55.61
53011;BME280;42803;55.762;38.084;2023-05-02T08:43:40;100332.31;;;11.65;51.96
53011;BME280;42803;55.762;38.084;2023-05-02T08:46:10;100322.69;;;11.95;52.21
53011;BME280;42803;55.762;38.084;2023-05-02T08:48:41;100311.78;;;12.21;51.41
53011;BME280;42803;55.762;38.084;2023-05-02T08:51:12;100317.59;;;12.49;48.14
53011;BME280;42803;55.762;38.084;2023-05-02T08:53:41;100310.34;;;12.67;53.30
53011;BME280;42803;55.762;38.084;2023-05-02T08:56:12;100311.00;;;12.22;55.25
53011;BME280;42803;55.762;38.084;2023-05-02T08:58:42;100308.91;;;12.18;52.65
53011;BME280;42803;55.762;38.084;2023-05-02T09:01:14;100310.75;;;12.09;49.68
53011;BME280;42803;55.762;38.084;2023-05-02T09:03:45;100315.81;;;12.28;50.63
53011;BME280;42803;55.762;38.084;2023-05-02T09:06:17;100312.81;;;12.23;53.32
53011;BME280;42803;55.762;38.084;2023-05-02T09:09:03;100310.31;;;12.25;51.42
53011;BME280;42803;55.762;38.084;2023-05-02T09:11:32;100310.13;;;12.54;51.37
53011;BME280;42803;55.762;38.084;2023-05-02T09:14:13;100311.09;;;12.76;46.24
53011;BME280;42803;55.762;38.084;2023-05-02T09:16:43;100307.69;;;12.99;45.92
53011;BME280;42803;55.762;38.084;2023-05-02T09:19:23;100317.41;;;13.22;48.46
53011;BME280;42803;55.762;38.084;2023-05-02T09:22:00;100309.38;;;13.31;50.25
53011;BME280;42803;55.762;38.084;2023-05-02T09:24:31;100319.34;;;13.47;50.51
53011;BME280;42803;55.762;38.084;2023-05-02T09:27:05;100321.88;;;13.45;50.70
53011;BME280;42803;55.762;38.084;2023-05-02T09:29:37;100313.09;;;13.78;44.74
53011;BME280;42803;55.762;38.084;2023-05-02T09:32:13;100297.69;;;13.71;41.91
53011;BME280;42803;55.762;38.084;2023-05-02T09:35:04;100293.53;;;14.08;45.49
53011;BME280;42803;55.762;38.084;2023-05-02T09:39:13;100291.94;;;14.46;43.46
53011;BME280;42803;55.762;38.084;2023-05-02T09:42:46;100290.38;;;14.59;43.94
53011;BME280;42803;55.762;38.084;2023-05-02T09:45:24;100286.16;;;14.50;40.96
53011;BME280;42803;55.762;38.084;2023-05-02T09:47:53;100287.56;;;13.87;40.05
53011;BME280;42803;55.762;38.084;2023-05-02T09:50:33;100288.19;;;13.73;43.88
53011;BME280;42803;55.762;38.084;2023-05-02T09:53:03;100284.06;;;13.65;50.77
53011;BME280;42803;55.762;38.084;2023-05-02T09:55:33;100295.00;;;12.72;46.96
53011;BME280;42803;55.762;38.084;2023-05-02T09:58:02;100279.44;;;12.31;46.73
53011;BME280;42803;55.762;38.084;2023-05-02T10:00:41;100281.94;;;12.19;47.71
53011;BME280;42803;55.762;38.084;2023-05-02T10:03:15;100279.81;;;12.35;45.20
53011;BME280;42803;55.762;38.084;2023-05-02T10:05:45;100279.69;;;12.66;45.17
53011;BME280;42803;55.762;38.084;2023-05-02T10:08:17;100279.09;;;12.80;45.97
53011;BME280;42803;55.762;38.084;2023-05-02T10:10:51;100275.09;;;12.96;41.94
53011;BME280;42803;55.762;38.084;2023-05-02T10:13:22;100269.06;;;12.97;37.42
53011;BME280;42803;55.762;38.084;2023-05-02T10:15:59;100271.75;;;13.30;44.40
53011;BME280;42803;55.762;38.084;2023-05-02T10:18:39;100270.78;;;13.40;38.39
53011;BME280;42803;55.762;38.084;2023-05-02T10:21:10;100279.16;;;13.24;45.70
53011;BME280;42803;55.762;38.084;2023-05-02T10:23:41;100286.28;;;13.05;44.96
53011;BME280;42803;55.762;38.084;2023-05-02T10:26:14;100268.63;;;13.02;41.58
53011;BME280;42803;55.762;38.084;2023-05-02T10:28:43;100277.97;;;12.99;43.65
53011;BME280;42803;55.762;38.084;2023-05-02T10:31:15;100275.09;;;12.96;45.49
53011;BME280;42803;55.762;38.084;2023-05-02T10:33:46;100273.28;;;12.95;44.59
53011;BME280;42803;55.762;38.084;2023-05-02T10:36:20;100274.97;;;13.16;45.25
53011;BME280;42803;55.762;38.084;2023-05-02T10:38:49;100275.13;;;13.39;44.88
53011;BME280;42803;55.762;38.084;2023-05-02T10:41:23;100270.38;;;13.57;42.73
53011;BME280;42803;55.762;38.084;2023-05-02T10:43:53;100261.50;;;13.67;40.66
53011;BME280;42803;55.762;38.084;2023-05-02T10:46:31;100266.78;;;13.79;40.94
53011;BME280;42803;55.762;38.084;2023-05-02T10:49:04;100255.41;;;14.02;43.08
53011;BME280;42803;55.762;38.084;2023-05-02T10:51:35;100247.63;;;14.15;42.26
53011;BME280;42803;55.762;38.084;2023-05-02T10:54:23;100246.28;;;14.08;41.79
53011;BME280;42803;55.762;38.084;2023-05-02T10:57:03;100249.00;;;14.33;40.10
53011;BME280;42803;55.762;38.084;2023-05-02T10:59:35;100245.59;;;14.46;41.87
53011;BME280;42803;55.762;38.084;2023-05-02T11:05:14;100239.19;;;14.07;42.33
53011;BME280;42803;55.762;38.084;2023-05-02T11:07:43;100248.44;;;14.37;41.17
53011;BME280;42803;55.762;38.084;2023-05-02T11:10:26;100235.75;;;14.67;39.82
53011;BME280;42803;55.762;38.084;2023-05-02T11:12:56;100238.41;;;15.04;40.14
53011;BME280;42803;55.762;38.084;2023-05-02T11:15:53;100230.84;;;15.08;38.88
53011;BME280;42803;55.762;38.084;2023-05-02T11:18:24;100228.22;;;15.08;38.52
53011;BME280;42803;55.762;38.084;2023-05-02T11:21:26;100219.31;;;15.31;37.96
53011;BME280;42803;55.762;38.084;2023-05-02T11:27:37;100217.97;;;15.25;37.83
53011;BME280;42803;55.762;38.084;2023-05-02T11:30:10;100220.47;;;14.61;39.86
53011;BME280;42803;55.762;38.084;2023-05-02T11:33:13;100224.22;;;14.53;39.51
53011;BME280;42803;55.762;38.084;2023-05-02T11:35:46;100215.91;;;14.35;39.55
53011;BME280;42803;55.762;38.084;2023-05-02T11:38:18;100217.25;;;14.30;41.45
53011;BME280;42803;55.762;38.084;2023-05-02T11:40:57;100214.22;;;14.24;42.16
53011;BME280;42803;55.762;38.084;2023-05-02T11:43:27;100217.75;;;14.25;42.59
53011;BME280;42803;55.762;38.084;2023-05-02T11:45:59;100210.69;;;14.12;42.76
53011;BME280;42803;55.762;38.084;2023-05-02T11:48:29;100213.63;;;14.17;41.26
53011;BME280;42803;55.762;38.084;2023-05-02T11:51:01;100208.47;;;14.30;42.66
53011;BME280;42803;55.762;38.084;2023-05-02T11:53:32;100199.69;;;14.18;42.07
53011;BME280;42803;55.762;38.084;2023-05-02T11:56:02;100196.25;;;14.19;41.05
53011;BME280;42803;55.762;38.084;2023-05-02T11:58:32;100207.56;;;14.18;39.85
53011;BME280;42803;55.762;38.084;2023-05-02T12:01:11;100207.22;;;14.36;40.38
53011;BME280;42803;55.762;38.084;2023-05-02T12:03:41;100196.47;;;14.33;39.41
53011;BME280;42803;55.762;38.084;2023-05-02T12:06:13;100192.72;;;14.18;39.90
53011;BME280;42803;55.762;38.084;2023-05-02T12:08:43;100191.94;;;13.96;38.29
53011;BME280;42803;55.762;38.084;2023-05-02T12:11:13;100186.94;;;13.99;41.17
53011;BME280;42803;55.762;38.084;2023-05-02T12:13:44;100184.84;;;14.18;41.92
53011;BME280;42803;55.762;38.084;2023-05-02T12:16:15;100188.50;;;14.44;39.61
53011;BME280;42803;55.762;38.084;2023-05-02T12:18:46;100184.63;;;14.38;38.29
53011;BME280;42803;55.762;38.084;2023-05-02T12:21:17;100189.41;;;14.32;38.85
53011;BME280;42803;55.762;38.084;2023-05-02T12:23:47;100182.53;;;14.34;41.08
53011;BME280;42803;55.762;38.084;2023-05-02T12:26:17;100180.53;;;14.07;39.53
53011;BME280;42803;55.762;38.084;2023-05-02T12:28:48;100184.84;;;14.18;41.10
53011;BME280;42803;55.762;38.084;2023-05-02T12:31:18;100180.72;;;14.33;40.96
53011;BME280;42803;55.762;38.084;2023-05-02T12:33:48;100185.88;;;14.32;40.27
53011;BME280;42803;55.762;38.084;2023-05-02T12:36:21;100178.34;;;14.36;39.93
53011;BME280;42803;55.762;38.084;2023-05-02T12:38:50;100179.13;;;14.47;41.03
53011;BME280;42803;55.762;38.084;2023-05-02T12:41:31;100179.38;;;14.15;39.91
53011;BME280;42803;55.762;38.084;2023-05-02T12:44:01;100177.09;;;13.73;40.01
53011;BME280;42803;55.762;38.084;2023-05-02T12:46:31;100172.31;;;13.79;40.05
53011;BME280;42803;55.762;38.084;2023-05-02T12:49:04;100161.72;;;14.01;41.29
53011;BME280;42803;55.762;38.084;2023-05-02T12:51:37;100165.91;;;14.22;41.02
53011;BME280;42803;55.762;38.084;2023-05-02T12:54:06;100160.44;;;14.31;39.98
53011;BME280;42803;55.762;38.084;2023-05-02T12:56:39;100168.88;;;14.38;40.39
53011;BME280;42803;55.762;38.084;2023-05-02T12:59:28;100165.53;;;14.53;40.61
53011;BME280;42803;55.762;38.084;2023-05-02T13:01:57;100162.69;;;14.61;40.56
53011;BME280;42803;55.762;38.084;2023-05-02T13:04:33;100160.81;;;14.60;41.69
53011;BME280;42803;55.762;38.084;2023-05-02T13:07:04;100156.06;;;14.55;41.41
53011;BME280;42803;55.762;38.084;2023-05-02T13:09:34;100167.94;;;14.26;41.27
53011;BME280;42803;55.762;38.084;2023-05-02T13:12:04;100168.44;;;13.97;41.43
53011;BME280;42803;55.762;38.084;2023-05-02T13:14:33;100160.22;;;13.93;42.45
53011;BME280;42803;55.762;38.084;2023-05-02T13:17:02;100160.44;;;13.96;40.23
53011;BME280;42803;55.762;38.084;2023-05-02T13:19:31;100160.91;;;14.02;39.79
53011;BME280;42803;55.762;38.084;2023-05-02T13:22:01;100154.84;;;14.03;41.47
53011;BME280;42803;55.762;38.084;2023-05-02T13:24:31;100159.75;;;14.10;39.99
53011;BME280;42803;55.762;38.084;2023-05-02T13:27:00;100153.34;;;14.18;40.96